East Meredith, New York
Current Conditions -  °F | °C
As of 1:35 AM on Monday 24 Nov 2014 (Local Time) from KNY0 Reporting Station
Broken Clouds Broken Clouds  
Wind Chill:   Ceiling: 12000
Heat Index:   Visibility: 10mi
Dew Point: -2°   Wind: 5mph
Humidity: 63%   Direction: 70°ENE
Pressure: 29.88"   Gusts: NA
Location:  42.42°N, 74.89°W
Report Text: KNY0 240635Z AUTO 07004KT 10SM SCT038 SCT055 BKN120 05/M02 A2988 RMK AO2 T00451019
Loading
Personal Weather Stations






























Interactive Weather Map New forecast layout! Learn more

10-Day Weather Forecast

Advertisements
Track Severe Weather on mobile